createdAt,value
2019-05-17T00:00:27.290Z,0.00
2019-05-17T00:01:27.053Z,0.00
2019-05-17T00:02:26.520Z,0.00
2019-05-17T00:03:27.040Z,0.00
2019-05-17T00:04:26.994Z,0.00
2019-05-17T00:05:26.482Z,0.00
2019-05-17T00:06:27.513Z,0.00
2019-05-17T00:07:27.315Z,0.00
2019-05-17T00:08:33.820Z,0.00
2019-05-17T00:09:26.794Z,0.00
2019-05-17T00:10:26.485Z,0.00
2019-05-17T00:11:27.377Z,0.00
2019-05-17T00:12:27.070Z,0.00
2019-05-17T00:13:26.835Z,0.00
2019-05-17T00:14:27.148Z,0.00
2019-05-17T00:15:27.333Z,0.00
2019-05-17T00:16:26.796Z,0.00
2019-05-17T00:17:26.762Z,0.00
2019-05-17T00:18:26.505Z,0.00
2019-05-17T00:19:26.288Z,0.00
2019-05-17T00:20:26.636Z,0.00
2019-05-17T00:21:27.507Z,0.00
2019-05-17T00:22:27.047Z,0.00
2019-05-17T00:23:26.870Z,0.00
2019-05-17T00:24:26.660Z,0.00
2019-05-17T00:25:27.359Z,0.00
2019-05-17T00:26:26.966Z,0.00
2019-05-17T00:27:26.500Z,0.00
2019-05-17T00:28:26.918Z,0.00
2019-05-17T00:29:26.473Z,0.00
2019-05-17T00:30:26.674Z,0.00
2019-05-17T00:31:26.408Z,0.00
2019-05-17T00:32:27.507Z,0.00
2019-05-17T00:33:27.192Z,0.00
2019-05-17T00:34:27.030Z,0.00
2019-05-17T00:35:26.859Z,0.00
2019-05-17T00:36:26.963Z,0.00
2019-05-17T00:37:26.545Z,0.00
2019-05-17T00:38:27.436Z,0.00
2019-05-17T00:39:27.180Z,0.00
2019-05-17T00:40:26.972Z,0.00
2019-05-17T00:41:27.029Z,0.00
2019-05-17T00:42:26.610Z,0.00
2019-05-17T00:43:26.594Z,0.00
2019-05-17T00:44:27.189Z,0.00
2019-05-17T00:45:26.842Z,0.00
2019-05-17T00:46:26.838Z,0.00
2019-05-17T00:47:26.720Z,0.00
2019-05-17T00:48:26.750Z,0.00
2019-05-17T00:49:26.787Z,0.00
2019-05-17T00:50:27.501Z,0.00
2019-05-17T00:51:27.418Z,0.00
2019-05-17T00:52:27.338Z,0.00
2019-05-17T00:53:27.015Z,0.00
2019-05-17T00:54:27.045Z,0.00
2019-05-17T00:55:26.967Z,0.00
2019-05-17T00:56:26.999Z,0.00
2019-05-17T00:57:27.464Z,0.00
2019-05-17T00:58:27.060Z,0.00
2019-05-17T00:59:27.096Z,0.00
2019-05-17T01:00:27.845Z,0.00
2019-05-17T01:01:27.179Z,0.00
2019-05-17T01:02:27.186Z,0.00
2019-05-17T01:03:27.218Z,0.00
2019-05-17T01:04:27.652Z,0.00
2019-05-17T01:05:27.546Z,0.00
2019-05-17T01:06:27.630Z,0.00
2019-05-17T01:07:27.341Z,4.00
2019-05-17T01:08:27.372Z,4.00
2019-05-17T01:09:27.450Z,4.00
2019-05-17T01:10:27.435Z,0.00
2019-05-17T01:11:27.467Z,0.00
2019-05-17T01:12:27.497Z,0.00
2019-05-17T01:13:27.532Z,4.00
2019-05-17T01:14:27.560Z,4.00
2019-05-17T01:15:27.595Z,4.00
2019-05-17T01:16:27.624Z,4.00
2019-05-17T01:17:27.651Z,4.00
2019-05-17T01:18:27.687Z,4.00
2019-05-17T01:19:27.717Z,4.00
2019-05-17T01:20:27.817Z,4.00
2019-05-17T01:21:27.779Z,4.00
2019-05-17T01:22:27.808Z,8.00
2019-05-17T01:23:27.840Z,8.00
2019-05-17T01:24:27.873Z,8.00
2019-05-17T01:25:27.902Z,8.00
2019-05-17T01:26:27.933Z,12.00
2019-05-17T01:27:27.968Z,12.00
2019-05-17T01:28:27.995Z,16.00
2019-05-17T01:29:28.025Z,16.00
2019-05-17T01:30:28.059Z,16.00
2019-05-17T01:31:28.092Z,20.00
2019-05-17T01:32:28.121Z,20.00
2019-05-17T01:33:28.150Z,20.00
2019-05-17T01:34:28.183Z,24.00
2019-05-17T01:35:28.213Z,28.00
2019-05-17T01:36:28.243Z,28.00
2019-05-17T01:37:28.277Z,36.00
2019-05-17T01:38:28.306Z,40.00
2019-05-17T01:39:28.335Z,44.00
2019-05-17T01:40:28.367Z,52.00
2019-05-17T01:41:28.397Z,56.00
2019-05-17T01:42:28.432Z,60.00
2019-05-17T01:43:28.460Z,64.00
2019-05-17T01:44:28.492Z,76.00
2019-05-17T01:45:28.522Z,80.00
2019-05-17T01:46:28.551Z,88.00
2019-05-17T01:47:28.587Z,92.00
2019-05-17T01:48:28.613Z,100.00
2019-05-17T01:49:28.645Z,104.00
2019-05-17T01:50:28.678Z,112.00
2019-05-17T01:51:28.711Z,124.00
2019-05-17T01:52:28.744Z,132.00
2019-05-17T01:53:28.770Z,140.00
2019-05-17T01:54:28.800Z,152.00
2019-05-17T01:55:28.832Z,164.00
2019-05-17T01:56:28.862Z,180.00
2019-05-17T01:57:28.894Z,192.00
2019-05-17T01:58:28.927Z,204.00
2019-05-17T01:59:28.958Z,220.00
2019-05-17T02:00:28.987Z,236.00
2019-05-17T02:01:29.017Z,256.00
2019-05-17T02:02:29.052Z,276.00
2019-05-17T02:03:29.084Z,296.00
2019-05-17T02:04:29.110Z,320.00
2019-05-17T02:05:29.142Z,344.00
2019-05-17T02:06:29.192Z,364.00
2019-05-17T02:07:29.204Z,388.00
2019-05-17T02:08:29.233Z,416.00
2019-05-17T02:09:37.075Z,444.00
2019-05-17T02:10:29.296Z,472.00
2019-05-17T02:11:29.330Z,504.00
2019-05-17T02:12:29.362Z,536.00
2019-05-17T02:13:29.388Z,572.00
2019-05-17T02:14:29.420Z,604.00
2019-05-17T02:15:29.452Z,640.00
2019-05-17T02:16:29.482Z,680.00
2019-05-17T02:17:29.512Z,724.00
2019-05-17T02:18:29.547Z,768.00
2019-05-17T02:19:29.575Z,812.00
2019-05-17T02:20:29.608Z,852.00
2019-05-17T02:21:29.635Z,896.00
2019-05-17T02:22:29.670Z,940.00
2019-05-17T02:23:29.701Z,980.00
2019-05-17T02:24:29.728Z,1036.00
2019-05-17T02:25:29.761Z,1092.00
2019-05-17T02:26:29.792Z,1152.00
2019-05-17T02:27:35.811Z,1212.00
2019-05-17T02:28:32.023Z,1260.00
2019-05-17T02:29:32.052Z,1304.00
2019-05-17T02:30:33.479Z,1352.00
2019-05-17T02:31:32.866Z,1388.00
2019-05-17T02:32:33.484Z,1436.00
2019-05-17T02:33:33.155Z,1468.00
2019-05-17T02:34:33.466Z,1512.00
2019-05-17T02:35:33.335Z,1548.00
2019-05-17T02:36:33.048Z,1580.00
2019-05-17T02:37:33.164Z,1620.00
2019-05-17T02:38:32.844Z,1644.00
2019-05-17T02:39:32.650Z,1672.00
2019-05-17T02:40:33.534Z,1696.00
2019-05-17T02:41:33.077Z,1708.00
2019-05-17T02:42:33.000Z,1748.00
2019-05-17T02:43:33.291Z,1796.00
2019-05-17T02:44:33.489Z,1836.00
2019-05-17T02:45:32.745Z,1868.00
2019-05-17T02:46:33.550Z,1896.00
2019-05-17T02:47:33.351Z,1944.00
2019-05-17T02:48:33.428Z,1980.00
2019-05-17T02:49:33.211Z,2028.00
2019-05-17T02:50:33.115Z,2080.00
2019-05-17T02:51:32.361Z,2128.00
2019-05-17T02:52:32.829Z,2184.00
2019-05-17T02:53:33.429Z,2248.00
2019-05-17T02:54:32.754Z,2320.00
2019-05-17T02:55:32.469Z,2400.00
2019-05-17T02:56:32.773Z,2480.00
2019-05-17T02:57:30.761Z,2568.00
2019-05-17T02:58:33.086Z,2652.00
2019-05-17T02:59:33.163Z,2744.00
2019-05-17T03:00:34.048Z,2832.00
2019-05-17T03:01:33.226Z,2920.00
2019-05-17T03:02:33.942Z,3016.00
2019-05-17T03:03:32.291Z,3108.00
2019-05-17T03:04:32.721Z,3188.00
2019-05-17T03:05:33.733Z,3288.00
2019-05-17T03:06:32.866Z,3388.00
2019-05-17T03:07:32.573Z,3484.00
2019-05-17T03:08:34.130Z,3580.00
2019-05-17T03:09:33.539Z,3672.00
2019-05-17T03:10:33.557Z,3772.00
2019-05-17T03:11:33.377Z,3896.00
2019-05-17T03:12:32.968Z,4040.00
2019-05-17T03:13:32.936Z,4144.00
2019-05-17T03:14:32.733Z,4224.00
2019-05-17T03:15:32.451Z,4304.00
2019-05-17T03:16:33.910Z,4368.00
2019-05-17T03:17:33.777Z,4452.00
2019-05-17T03:18:33.382Z,4508.00
2019-05-17T03:19:32.795Z,4576.00
2019-05-17T03:20:32.739Z,4640.00
2019-05-17T03:21:33.806Z,4696.00
2019-05-17T03:22:33.238Z,4768.00
2019-05-17T03:23:32.833Z,4768.00
2019-05-17T03:24:33.301Z,4828.00
2019-05-17T03:25:33.542Z,4920.00
2019-05-17T03:26:32.807Z,4980.00
2019-05-17T03:27:33.639Z,5284.00
2019-05-17T03:28:33.780Z,4976.00
2019-05-17T03:29:33.572Z,5072.00
2019-05-17T03:30:36.589Z,5120.00
2019-05-17T03:31:40.792Z,5128.00
2019-05-17T03:32:36.264Z,5188.00
2019-05-17T03:33:36.050Z,5184.00
2019-05-17T03:34:36.845Z,5224.00
2019-05-17T03:35:37.681Z,5292.00
2019-05-17T03:36:36.457Z,5292.00
2019-05-17T03:37:37.206Z,5324.00
2019-05-17T03:38:32.597Z,5316.00
2019-05-17T03:39:33.315Z,5276.00
2019-05-17T03:41:01.082Z,5440.00
2019-05-17T03:41:34.100Z,5588.00
2019-05-17T03:42:33.117Z,5676.00
2019-05-17T03:43:35.226Z,5712.00
2019-05-17T03:44:33.214Z,5768.00
2019-05-17T03:45:33.940Z,6324.00
2019-05-17T03:46:33.448Z,6208.00
2019-05-17T03:47:33.398Z,5940.00
2019-05-17T03:48:33.333Z,5736.00
2019-05-17T03:49:33.093Z,5908.00
2019-05-17T03:50:33.541Z,6056.00
2019-05-17T03:51:33.318Z,6200.00
2019-05-17T03:52:33.294Z,6312.00
2019-05-17T03:53:33.509Z,6448.00
2019-05-17T03:54:32.693Z,6452.00
2019-05-17T03:55:33.381Z,6484.00
2019-05-17T03:56:33.127Z,6592.00
2019-05-17T03:57:32.686Z,6440.00
2019-05-17T03:58:33.538Z,6420.00
2019-05-17T03:59:33.409Z,6528.00
2019-05-17T04:00:35.297Z,6644.00
2019-05-17T04:01:32.950Z,6512.00
2019-05-17T04:02:32.861Z,6480.00
2019-05-17T04:03:35.501Z,6708.00
2019-05-17T04:04:33.269Z,6628.00
2019-05-17T04:05:33.687Z,6784.00
2019-05-17T04:06:33.191Z,6824.00
2019-05-17T04:07:33.069Z,6800.00
2019-05-17T04:08:33.533Z,6684.00
2019-05-17T04:09:37.104Z,6692.00
2019-05-17T04:10:33.806Z,6724.00
2019-05-17T04:11:36.412Z,6708.00
2019-05-17T04:12:33.167Z,7004.00
2019-05-17T04:13:33.898Z,7244.00
2019-05-17T04:14:33.640Z,7120.00
2019-05-17T04:15:33.407Z,6992.00
2019-05-17T04:16:33.935Z,6708.00
2019-05-17T04:17:33.331Z,6928.00
2019-05-17T04:18:33.764Z,7408.00
2019-05-17T04:19:33.827Z,7568.00
2019-05-17T04:20:33.819Z,7452.00
2019-05-17T04:21:34.415Z,7496.00
2019-05-17T04:22:33.496Z,7660.00
2019-05-17T04:23:34.166Z,7600.00
2019-05-17T04:24:33.562Z,7688.00
2019-05-17T04:25:34.042Z,7680.00
2019-05-17T04:26:33.636Z,7688.00
2019-05-17T04:27:33.662Z,7932.00
2019-05-17T04:28:33.900Z,9616.00
2019-05-17T04:29:33.731Z,8560.00
2019-05-17T04:30:33.766Z,8432.00
2019-05-17T04:31:34.791Z,8076.00
2019-05-17T04:32:33.835Z,8092.00
2019-05-17T04:33:34.005Z,8256.00
2019-05-17T04:34:34.095Z,8736.00
2019-05-17T04:35:33.926Z,9396.00
2019-05-17T04:36:33.967Z,8508.00
2019-05-17T04:37:38.119Z,10308.00
2019-05-17T04:38:34.030Z,14976.00
2019-05-17T04:39:34.066Z,17952.00
2019-05-17T04:40:34.396Z,16672.00
2019-05-17T04:41:45.006Z,19456.00
2019-05-17T04:42:34.167Z,20352.00
2019-05-17T04:43:34.198Z,20256.00
2019-05-17T04:44:34.237Z,20064.00
2019-05-17T04:45:34.273Z,19968.00
2019-05-17T04:46:34.303Z,19616.00
2019-05-17T04:47:34.339Z,19232.00
2019-05-17T04:48:34.375Z,19008.00
2019-05-17T04:49:34.413Z,18656.00
2019-05-17T04:50:34.445Z,17248.00
2019-05-17T04:51:34.488Z,16768.00
2019-05-17T04:52:34.518Z,16736.00
2019-05-17T04:53:34.555Z,16448.00
2019-05-17T04:54:34.592Z,16320.00
2019-05-17T04:55:34.646Z,16320.00
2019-05-17T04:56:34.669Z,16128.00
2019-05-17T04:57:34.707Z,16384.00
2019-05-17T04:58:34.744Z,16992.00
2019-05-17T04:59:34.782Z,17056.00
2019-05-17T05:00:34.825Z,17184.00
2019-05-17T05:01:34.860Z,18048.00
2019-05-17T05:02:34.913Z,18880.00
2019-05-17T05:03:34.945Z,19552.00
2019-05-17T05:04:38.440Z,20000.00
2019-05-17T05:05:35.016Z,20384.00
2019-05-17T05:06:35.061Z,21056.00
2019-05-17T05:07:35.093Z,22112.00
2019-05-17T05:08:35.133Z,22784.00
2019-05-17T05:09:35.177Z,24608.00
2019-05-17T05:10:38.385Z,25024.00
2019-05-17T05:11:50.396Z,25056.00
2019-05-17T05:12:35.295Z,25504.00
2019-05-17T05:13:35.336Z,26304.00
2019-05-17T05:14:35.384Z,25632.00
2019-05-17T05:15:35.419Z,26400.00
2019-05-17T05:16:35.508Z,25952.00
2019-05-17T05:17:35.501Z,27584.00
2019-05-17T05:18:35.540Z,28608.00
2019-05-17T05:19:35.583Z,30560.00
2019-05-17T05:20:35.617Z,31360.00
2019-05-17T05:21:35.660Z,30816.00
2019-05-17T05:22:35.699Z,29248.00
2019-05-17T05:23:35.741Z,28032.00
2019-05-17T05:24:35.781Z,29312.00
2019-05-17T05:25:35.822Z,29760.00
2019-05-17T05:26:35.864Z,29696.00
2019-05-17T05:27:35.906Z,28960.00
2019-05-17T05:28:35.944Z,28512.00
2019-05-17T05:29:35.985Z,28896.00
2019-05-17T05:30:36.026Z,29824.00
2019-05-17T05:31:36.075Z,30496.00
2019-05-17T05:32:36.109Z,30336.00
2019-05-17T05:33:36.148Z,29952.00
2019-05-17T05:34:36.191Z,31264.00
2019-05-17T05:35:36.234Z,31200.00
2019-05-17T05:36:36.276Z,31360.00
2019-05-17T05:37:36.315Z,33568.00
2019-05-17T05:38:36.355Z,32768.00
2019-05-17T05:39:36.398Z,32608.00
2019-05-17T05:40:36.437Z,31296.00
2019-05-17T05:41:36.478Z,31584.00
2019-05-17T05:42:36.530Z,31264.00
2019-05-17T05:43:36.562Z,28096.00
2019-05-17T05:44:36.606Z,31424.00
2019-05-17T05:45:36.647Z,31648.00
2019-05-17T05:46:36.688Z,30240.00
2019-05-17T05:47:36.730Z,30912.00
2019-05-17T05:48:36.775Z,30432.00
2019-05-17T05:49:36.813Z,33632.00
2019-05-17T05:50:36.858Z,36896.00
2019-05-17T05:51:36.896Z,37984.00
2019-05-17T05:52:36.938Z,38144.00
2019-05-17T05:53:36.977Z,38912.00
2019-05-17T05:54:37.021Z,39904.00
2019-05-17T05:55:37.062Z,40448.00
2019-05-17T05:56:37.103Z,40096.00
2019-05-17T05:57:37.148Z,40096.00
2019-05-17T05:58:37.193Z,40384.00
2019-05-17T05:59:37.234Z,40768.00
2019-05-17T06:00:37.275Z,40064.00
2019-05-17T06:01:37.315Z,40672.00
2019-05-17T06:02:37.359Z,40608.00
2019-05-17T06:03:37.400Z,40576.00
2019-05-17T06:04:37.441Z,40352.00
2019-05-17T06:05:37.485Z,42720.00
2019-05-17T06:06:37.527Z,42624.00
2019-05-17T06:07:37.573Z,42848.00
2019-05-17T06:08:37.618Z,44480.00
2019-05-17T06:09:37.657Z,43808.00
2019-05-17T06:10:39.485Z,44608.00
2019-05-17T06:11:37.743Z,46688.00
2019-05-17T06:12:37.787Z,45440.00
2019-05-17T06:13:37.829Z,44256.00
2019-05-17T06:14:37.871Z,45280.00
2019-05-17T06:15:37.917Z,45440.00
2019-05-17T06:16:37.957Z,45600.00
2019-05-17T06:17:38.002Z,46496.00
2019-05-17T06:18:38.046Z,46048.00
2019-05-17T06:19:38.090Z,46560.00
2019-05-17T06:20:38.132Z,48128.00
2019-05-17T06:21:38.179Z,45920.00
2019-05-17T06:22:38.221Z,48096.00
2019-05-17T06:23:38.263Z,47424.00
2019-05-17T06:24:38.308Z,46304.00
2019-05-17T06:25:38.351Z,48864.00
2019-05-17T06:26:38.398Z,51488.00
2019-05-17T06:27:38.439Z,51488.00
2019-05-17T06:28:38.485Z,51008.00
2019-05-17T06:29:38.527Z,50720.00
2019-05-17T06:30:38.571Z,52960.00
2019-05-17T06:31:38.615Z,52960.00
2019-05-17T06:32:38.659Z,52800.00
2019-05-17T06:33:38.705Z,52512.00
2019-05-17T06:34:38.748Z,50752.00
2019-05-17T06:35:38.795Z,51392.00
2019-05-17T06:36:38.836Z,53088.00
2019-05-17T06:37:38.880Z,53312.00
2019-05-17T06:38:38.925Z,53984.00
2019-05-17T06:39:38.970Z,54240.00
2019-05-17T06:40:39.013Z,56000.00
2019-05-17T06:41:39.059Z,56160.00
2019-05-17T06:42:44.117Z,54784.00
2019-05-17T06:43:41.484Z,55104.00
2019-05-17T06:44:41.619Z,54208.00
2019-05-17T06:45:41.652Z,53376.00
2019-05-17T06:46:41.611Z,56160.00
2019-05-17T06:47:39.331Z,59200.00
2019-05-17T06:48:39.385Z,59680.00
2019-05-17T06:49:39.419Z,59168.00
2019-05-17T06:50:39.465Z,58816.00
2019-05-17T06:51:39.509Z,60000.00
2019-05-17T06:52:39.556Z,62144.00
2019-05-17T06:53:39.600Z,60384.00
2019-05-17T06:54:41.668Z,59040.00
2019-05-17T06:55:42.135Z,59200.00
2019-05-17T06:56:41.826Z,59296.00
2019-05-17T06:57:39.784Z,60224.00
2019-05-17T06:58:39.830Z,63584.00
2019-05-17T06:59:39.880Z,63712.00
2019-05-17T07:00:40.403Z,63104.00
2019-05-17T07:01:41.014Z,62464.00
2019-05-17T07:02:40.287Z,60768.00
2019-05-17T07:03:40.092Z,59616.00
2019-05-17T07:04:40.110Z,63264.00
2019-05-17T07:05:40.496Z,63648.00
2019-05-17T07:06:40.617Z,42784.00
2019-05-17T07:07:40.608Z,58752.00
2019-05-17T07:08:40.323Z,65216.00
2019-05-17T07:09:40.335Z,67968.00
2019-05-17T07:10:40.385Z,64416.00
2019-05-17T07:11:40.433Z,60800.00
2019-05-17T07:12:54.433Z,65856.00
2019-05-17T07:13:40.531Z,67744.00
2019-05-17T07:14:40.569Z,69632.00
2019-05-17T07:15:47.271Z,70208.00
2019-05-17T07:16:40.666Z,69504.00
2019-05-17T07:17:40.710Z,69472.00
2019-05-17T07:18:40.759Z,68544.00
2019-05-17T07:19:40.824Z,67584.00
2019-05-17T07:20:40.849Z,70496.00
2019-05-17T07:21:40.932Z,71168.00
2019-05-17T07:22:41.148Z,70432.00
2019-05-17T07:23:40.990Z,69760.00
2019-05-17T07:24:41.036Z,70720.00
2019-05-17T07:25:41.083Z,70208.00
2019-05-17T07:26:41.136Z,71968.00
2019-05-17T07:27:45.353Z,71168.00
2019-05-17T07:28:41.225Z,70272.00
2019-05-17T07:29:41.273Z,70720.00
2019-05-17T07:30:41.319Z,73408.00
2019-05-17T07:31:41.370Z,74944.00
2019-05-17T07:32:41.428Z,73664.00
2019-05-17T07:33:41.461Z,72832.00
2019-05-17T07:34:41.508Z,73664.00
2019-05-17T07:35:41.553Z,71456.00
2019-05-17T07:36:41.602Z,70016.00
2019-05-17T07:37:41.646Z,71456.00
2019-05-17T07:38:41.696Z,75360.00
2019-05-17T07:39:42.304Z,76352.00
2019-05-17T07:40:41.788Z,80800.00
2019-05-17T07:41:41.836Z,79584.00
2019-05-17T07:42:41.886Z,77664.00
2019-05-17T07:43:41.933Z,77312.00
2019-05-17T07:44:44.057Z,77600.00
2019-05-17T07:45:42.028Z,73920.00
2019-05-17T07:46:42.074Z,66304.00
2019-05-17T07:47:42.121Z,72160.00
2019-05-17T07:48:42.170Z,65632.00
2019-05-17T07:49:42.217Z,70240.00
2019-05-17T07:50:42.263Z,76096.00
2019-05-17T07:51:42.311Z,73568.00
2019-05-17T07:52:42.373Z,74656.00
2019-05-17T07:53:42.411Z,76160.00
2019-05-17T07:54:42.459Z,78912.00
2019-05-17T07:55:42.505Z,76320.00
2019-05-17T07:56:42.566Z,72736.00
2019-05-17T07:57:42.603Z,76800.00
2019-05-17T07:58:42.651Z,80224.00
2019-05-17T07:59:42.702Z,56320.00
2019-05-17T08:00:42.749Z,63616.00
2019-05-17T08:01:42.796Z,73984.00
2019-05-17T08:02:42.843Z,66688.00
2019-05-17T08:03:42.893Z,69920.00
2019-05-17T08:04:42.945Z,60224.00
2019-05-17T08:05:42.990Z,56224.00
2019-05-17T08:06:43.036Z,55264.00
2019-05-17T08:07:43.085Z,50144.00
2019-05-17T08:08:43.132Z,59744.00
2019-05-17T08:09:43.183Z,58944.00
2019-05-17T08:10:43.229Z,64384.00
2019-05-17T08:11:43.277Z,72480.00
2019-05-17T08:12:43.322Z,89248.00
2019-05-17T08:13:43.377Z,92544.00
2019-05-17T08:14:43.419Z,94272.00
2019-05-17T08:15:43.465Z,96384.00
2019-05-17T08:16:43.515Z,95296.00
2019-05-17T08:17:43.562Z,94752.00
2019-05-17T08:18:43.611Z,97312.00
2019-05-17T08:19:43.662Z,96480.00
2019-05-17T08:20:43.705Z,93088.00
2019-05-17T08:21:43.755Z,91360.00
2019-05-17T08:22:43.804Z,92224.00
2019-05-17T08:23:43.855Z,94208.00
2019-05-17T08:24:43.907Z,96128.00
2019-05-17T08:25:52.887Z,86176.00
2019-05-17T08:26:44.003Z,83648.00
2019-05-17T08:27:44.068Z,86240.00
2019-05-17T08:28:44.100Z,85216.00
2019-05-17T08:29:44.152Z,78560.00
2019-05-17T08:30:44.206Z,90464.00
2019-05-17T08:31:44.251Z,81248.00
2019-05-17T08:32:44.302Z,71552.00
2019-05-17T08:33:44.352Z,89504.00
2019-05-17T08:34:44.405Z,89056.00
2019-05-17T08:35:44.452Z,82592.00
2019-05-17T08:36:44.503Z,87072.00
2019-05-17T08:37:44.553Z,98016.00
2019-05-17T08:38:44.604Z,98048.00
2019-05-17T08:39:44.657Z,86496.00
2019-05-17T08:40:44.704Z,62976.00
2019-05-17T08:41:44.754Z,57408.00
2019-05-17T08:42:44.807Z,68896.00
2019-05-17T08:43:46.805Z,62912.00
2019-05-17T08:44:44.905Z,60704.00
2019-05-17T08:45:44.958Z,61888.00
2019-05-17T08:46:45.004Z,63872.00
2019-05-17T08:47:45.058Z,41248.00
2019-05-17T08:48:45.104Z,41184.00
2019-05-17T08:49:45.158Z,41184.00
2019-05-17T08:50:45.203Z,36640.00
2019-05-17T08:51:45.251Z,32512.00
2019-05-17T08:52:45.301Z,35360.00
2019-05-17T08:53:45.347Z,39072.00
2019-05-17T08:54:45.394Z,49888.00
2019-05-17T08:55:45.447Z,56960.00
2019-05-17T08:56:45.491Z,58848.00
2019-05-17T08:57:45.536Z,59648.00
2019-05-17T08:58:45.587Z,68928.00
2019-05-17T08:59:45.629Z,68288.00
2019-05-17T09:00:45.675Z,68864.00
2019-05-17T09:01:45.723Z,60608.00
2019-05-17T09:02:45.774Z,57536.00
2019-05-17T09:03:45.819Z,55488.00
2019-05-17T09:04:45.861Z,58848.00
2019-05-17T09:05:45.912Z,60480.00
2019-05-17T09:06:45.957Z,46080.00
2019-05-17T09:07:46.004Z,55584.00
2019-05-17T09:08:46.050Z,57632.00
2019-05-17T09:09:46.094Z,56064.00
2019-05-17T09:10:46.144Z,64288.00
2019-05-17T09:11:46.189Z,65376.00
2019-05-17T09:12:46.237Z,63520.00
2019-05-17T09:13:57.343Z,57728.00
2019-05-17T09:14:46.330Z,55264.00
2019-05-17T09:15:46.378Z,58080.00
2019-05-17T09:16:46.419Z,52384.00
2019-05-17T09:17:46.465Z,59040.00
2019-05-17T09:18:46.512Z,59712.00
2019-05-17T09:19:46.560Z,55200.00
2019-05-17T09:20:46.605Z,54944.00
2019-05-17T09:21:46.653Z,56256.00
2019-05-17T09:22:46.697Z,73696.00
2019-05-17T09:23:46.750Z,62112.00
2019-05-17T09:24:46.789Z,53344.00
2019-05-17T09:25:46.845Z,49888.00
2019-05-17T09:26:49.183Z,44416.00
2019-05-17T09:27:46.937Z,45088.00
2019-05-17T09:28:46.975Z,47200.00
2019-05-17T09:29:47.023Z,43712.00
2019-05-17T09:30:47.069Z,45536.00
2019-05-17T09:31:47.115Z,48544.00
2019-05-17T09:32:47.158Z,52992.00
2019-05-17T09:33:49.574Z,52928.00
2019-05-17T09:34:49.656Z,55488.00
2019-05-17T09:35:49.780Z,40384.00
2019-05-17T09:36:49.576Z,37376.00
2019-05-17T09:37:49.707Z,34816.00
2019-05-17T09:38:49.300Z,39424.00
2019-05-17T09:39:49.269Z,40064.00
2019-05-17T09:40:47.522Z,46816.00
2019-05-17T09:41:47.565Z,52928.00
2019-05-17T09:42:49.758Z,55680.00
2019-05-17T09:43:49.681Z,58944.00
2019-05-17T09:44:49.575Z,67136.00
2019-05-17T09:45:50.432Z,82240.00
2019-05-17T09:46:50.259Z,78432.00
2019-05-17T09:47:50.353Z,62944.00
2019-05-17T09:48:50.252Z,51552.00
2019-05-17T09:49:50.000Z,46624.00
2019-05-17T09:50:50.231Z,44704.00
2019-05-17T09:51:49.695Z,45344.00
2019-05-17T09:52:49.413Z,46816.00
2019-05-17T09:53:49.602Z,51904.00
2019-05-17T09:54:50.184Z,46624.00
2019-05-17T09:55:49.832Z,47392.00
2019-05-17T09:56:49.709Z,48320.00
2019-05-17T09:57:49.719Z,53440.00
2019-05-17T09:58:49.525Z,51488.00
2019-05-17T09:59:49.620Z,47392.00
2019-05-17T10:00:49.528Z,47232.00
2019-05-17T10:01:49.467Z,47744.00
2019-05-17T10:02:50.865Z,48320.00
2019-05-17T10:03:50.659Z,50080.00
2019-05-17T10:04:50.230Z,50304.00
2019-05-17T10:05:49.582Z,48320.00
2019-05-17T10:06:48.696Z,46688.00
2019-05-17T10:07:50.770Z,46688.00
2019-05-17T10:08:49.542Z,45504.00
2019-05-17T10:09:50.191Z,44640.00
2019-05-17T10:11:04.288Z,44352.00
2019-05-17T10:11:49.306Z,44288.00
2019-05-17T10:12:49.695Z,43904.00
2019-05-17T10:13:49.900Z,43712.00
2019-05-17T10:14:49.837Z,43232.00
2019-05-17T10:15:50.050Z,42880.00
2019-05-17T10:16:49.136Z,43168.00
2019-05-17T10:17:49.180Z,42976.00
2019-05-17T10:18:49.224Z,43168.00
2019-05-17T10:19:49.273Z,42720.00
2019-05-17T10:20:50.708Z,42560.00
2019-05-17T10:21:49.362Z,42016.00
2019-05-17T10:22:50.463Z,41088.00
2019-05-17T10:23:49.800Z,40288.00
2019-05-17T10:24:49.490Z,39744.00
2019-05-17T10:25:49.535Z,39776.00
2019-05-17T10:26:49.952Z,39584.00
2019-05-17T10:27:49.912Z,39104.00
2019-05-17T10:28:51.592Z,37984.00
2019-05-17T10:29:50.198Z,36832.00
2019-05-17T10:30:52.385Z,35648.00
2019-05-17T10:31:50.427Z,34144.00
2019-05-17T10:32:50.571Z,32384.00
2019-05-17T10:33:49.888Z,30560.00
2019-05-17T10:34:49.930Z,28992.00
2019-05-17T10:35:49.978Z,27744.00
2019-05-17T10:36:50.657Z,27008.00
2019-05-17T10:37:50.525Z,26752.00
2019-05-17T10:38:50.344Z,26944.00
2019-05-17T10:39:50.391Z,27776.00
2019-05-17T10:40:50.279Z,29056.00
2019-05-17T10:41:50.235Z,30240.00
2019-05-17T10:42:50.274Z,32256.00
2019-05-17T10:43:50.320Z,34400.00
2019-05-17T10:44:51.301Z,36160.00
2019-05-17T10:45:50.403Z,37504.00
2019-05-17T10:46:50.445Z,38496.00
2019-05-17T10:47:50.498Z,39264.00
2019-05-17T10:48:50.534Z,39712.00
2019-05-17T10:49:50.575Z,39680.00
2019-05-17T10:50:50.613Z,39392.00
2019-05-17T10:51:50.658Z,39008.00
2019-05-17T10:52:50.700Z,38656.00
2019-05-17T10:53:51.412Z,38400.00
2019-05-17T10:54:50.784Z,38112.00
2019-05-17T10:55:50.826Z,37792.00
2019-05-17T10:56:50.887Z,37696.00
2019-05-17T10:57:50.911Z,37888.00
2019-05-17T10:58:50.958Z,37472.00
2019-05-17T10:59:51.000Z,37824.00
2019-05-17T11:00:51.040Z,38464.00
2019-05-17T11:01:51.082Z,39232.00
2019-05-17T11:02:51.125Z,40192.00
2019-05-17T11:03:51.172Z,40352.00
2019-05-17T11:04:51.210Z,40672.00
2019-05-17T11:05:51.253Z,41408.00
2019-05-17T11:06:51.298Z,44032.00
2019-05-17T11:07:51.343Z,48576.00
2019-05-17T11:08:51.382Z,49344.00
2019-05-17T11:09:51.426Z,47648.00
2019-05-17T11:10:51.464Z,48864.00
2019-05-17T11:11:51.514Z,46688.00
2019-05-17T11:12:51.556Z,46976.00
2019-05-17T11:13:53.107Z,47232.00
2019-05-17T11:15:09.408Z,49088.00
2019-05-17T11:15:51.710Z,49856.00
2019-05-17T11:16:51.727Z,49248.00
2019-05-17T11:17:51.770Z,48832.00
2019-05-17T11:18:51.815Z,47072.00
2019-05-17T11:19:51.856Z,48800.00
2019-05-17T11:20:51.913Z,53472.00
2019-05-17T11:21:51.946Z,65216.00
2019-05-17T11:22:51.987Z,83616.00
2019-05-17T11:23:52.031Z,79360.00
2019-05-17T11:24:52.074Z,78016.00
2019-05-17T11:25:52.123Z,71712.00
2019-05-17T11:26:52.172Z,73344.00
2019-05-17T11:27:52.213Z,84096.00
2019-05-17T11:28:52.253Z,86208.00
2019-05-17T11:29:52.297Z,86112.00
2019-05-17T11:30:52.344Z,80128.00
2019-05-17T11:31:52.396Z,76128.00
2019-05-17T11:32:52.437Z,63264.00
2019-05-17T11:33:52.490Z,76832.00
2019-05-17T11:34:52.532Z,69664.00
2019-05-17T11:35:52.582Z,77792.00
2019-05-17T11:36:52.626Z,82464.00
2019-05-17T11:37:52.686Z,59456.00
2019-05-17T11:38:52.721Z,81184.00
2019-05-17T11:39:52.771Z,66816.00
2019-05-17T11:40:52.818Z,65536.00
2019-05-17T11:41:52.871Z,74432.00
2019-05-17T11:42:52.918Z,83904.00
2019-05-17T11:43:52.972Z,85664.00
2019-05-17T11:44:53.018Z,63680.00
2019-05-17T11:45:53.068Z,53120.00
2019-05-17T11:46:53.117Z,72576.00
2019-05-17T11:47:53.168Z,76160.00
2019-05-17T11:48:53.226Z,43232.00
2019-05-17T11:49:53.268Z,39904.00
2019-05-17T11:50:55.144Z,48000.00
2019-05-17T11:51:53.371Z,55392.00
2019-05-17T11:52:53.422Z,78016.00
2019-05-17T11:53:53.469Z,52608.00
2019-05-17T11:54:53.517Z,72480.00
2019-05-17T11:55:53.567Z,65152.00
2019-05-17T11:56:53.618Z,69984.00
2019-05-17T11:57:53.665Z,69312.00
2019-05-17T11:58:53.718Z,68032.00
2019-05-17T11:59:53.769Z,41504.00
2019-05-17T12:00:53.814Z,39520.00
2019-05-17T12:01:53.866Z,59200.00
2019-05-17T12:02:53.920Z,33184.00